Neptune Pioneer — 3EKH6 — position and weather

sailwx.info

Track history (hours):
 
Tides and Currents Weather Stations Pressure Air Temp Water Temp Dewpoint Dewpoint Depression Visibility Wind Speed Wind Dir Waves Ship Positions

Neptune Pioneer

Last reported at 2017-Jun-01 19:40 UTC. Time now 2017-Jun-22 14:27 UTC.
Position S 33°60' E 018°14'.
Warning: this ship's position is 20 days out of date.

Length 190 m; draft 6.2 m.

Type: Cargo ship. MMSI: 372723000.

Date/timePositionNaut miles runAvg speedWind from/ knotsBaromVisibWave heightAir tempDewpointWater temp
2017-Jun-01 19:40S 33°60' E 018°14'313.6
2017-Jun-01 19:28S 33°57' E 018°15'613.5
2017-Jun-01 19:00S 33°52' E 018°20'510.5
2017-Jun-01 18:30S 33°52' E 018°26'2 4.8
2017-Jun-01 18:00S 33°55' E 018°26'0 0.2
2017-Jun-01 17:28S 33°54' E 018°26'0 0.0
2017-Jun-01 16:58S 33°54' E 018°26'0 0.0
2017-Jun-01 16:28S 33°54' E 018°26'0 0.0
2017-Jun-01 15:58S 33°54' E 018°26'0 0.0
2017-Jun-01 15:28S 33°54' E 018°26'0 0.0
2017-Jun-01 14:58S 33°54' E 018°26'0 0.0
2017-Jun-01 13:58S 33°54' E 018°26'0 0.0
2017-Jun-01 13:28S 33°54' E 018°26'0 0.0
2017-Jun-01 12:55S 33°54' E 018°26'0 0.0
2017-Jun-01 12:28S 33°54' E 018°26'0 0.0
2017-Jun-01 11:58S 33°54' E 018°26'0 0.0
2017-Jun-01 11:28S 33°54' E 018°26'0 0.0
2017-Jun-01 10:58S 33°54' E 018°26'0 0.0
2017-Jun-01 10:28S 33°54' E 018°26'0 0.0
2017-Jun-01 09:58S 33°54' E 018°26'0 0.0
2017-Jun-01 09:28S 33°54' E 018°26'0 0.0
2017-Jun-01 08:55S 33°54' E 018°26'0 0.0
2017-Jun-01 08:28S 33°54' E 018°26'0 0.0
2017-Jun-01 07:58S 33°54' E 018°26'0 0.0
2017-Jun-01 07:30S 33°54' E 018°26'0 0.0
2017-Jun-01 06:59S 33°54' E 018°26'0 0.0
2017-Jun-01 06:30S 33°54' E 018°26'0 0.0
2017-Jun-01 06:00S 33°54' E 018°26'0 0.0
2017-Jun-01 05:30S 33°54' E 018°26'0 0.0
2017-Jun-01 05:00S 33°54' E 018°26'0 0.0
2017-Jun-01 04:30S 33°54' E 018°26'0 0.0
2017-Jun-01 04:00S 33°54' E 018°26'0 0.0
2017-Jun-01 03:30S 33°54' E 018°26'0 0.0
2017-Jun-01 03:00S 33°54' E 018°26'0 0.0
2017-Jun-01 02:30S 33°54' E 018°26'0 0.0
2017-Jun-01 02:00S 33°54' E 018°26'0 0.0
2017-Jun-01 01:30S 33°54' E 018°26'0 0.0
2017-Jun-01 01:00S 33°54' E 018°26'0 0.0
2017-Jun-01 00:30S 33°54' E 018°26'0 0.0
2017-Jun-01 00:00S 33°54' E 018°26'0 0.0
2017-May-31 23:30S 33°54' E 018°26'0 0.0
2017-May-31 23:00S 33°54' E 018°26'0 0.0
2017-May-31 22:30S 33°54' E 018°26'0 0.0
2017-May-31 22:00S 33°54' E 018°26'0 0.0
2017-May-31 21:30S 33°54' E 018°26'0 0.0
2017-May-31 21:00S 33°54' E 018°26'0 0.0
2017-May-31 20:30S 33°54' E 018°26'0 0.0
2017-May-31 20:00S 33°54' E 018°26'0 0.0
2017-May-31 19:30S 33°54' E 018°26'0 0.0
2017-May-31 19:00S 33°54' E 018°26'0 0.0
2017-May-31 18:30S 33°54' E 018°26'0 0.0
2017-May-31 18:00S 33°54' E 018°26'0 0.0
2017-May-31 17:30S 33°54' E 018°26'0 0.0
2017-May-31 17:00S 33°54' E 018°26'0 0.0
2017-May-31 16:30S 33°54' E 018°26'0 0.0
2017-May-31 16:00S 33°54' E 018°26'0 0.0
2017-May-31 15:30S 33°54' E 018°26'0 0.0
2017-May-31 15:00S 33°54' E 018°26'0 0.0
2017-May-31 14:00S 33°54' E 018°26'0 0.0
2017-May-31 13:30S 33°54' E 018°26'0 0.0
2017-May-31 13:00S 33°54' E 018°26'0 0.0
2017-May-31 12:30S 33°54' E 018°26'0 0.0
2017-May-31 12:00S 33°54' E 018°26'0 0.7
2017-May-31 11:30S 33°54' E 018°26'2 4.5
2017-May-31 11:00S 33°52' E 018°25'1 1.0
2017-May-31 10:30S 33°52' E 018°24'3 5.8
2017-May-31 10:00S 33°53' E 018°28'0 0.0
2017-May-31 09:30S 33°53' E 018°28'0 0.2
2017-May-31 09:00S 33°53' E 018°28'0 0.3
2017-May-31 08:30S 33°53' E 018°28'0 0.4
2017-May-31 08:00S 33°53' E 018°27'3 6.6
2017-May-31 07:30S 33°52' E 018°23'2 4.0
2017-May-31 07:01S 33°53' E 018°21'1 2.2
2017-May-31 06:30S 33°54' E 018°20'5 9.8
2017-May-31 06:01S 33°58' E 018°17'  
2017-May-29 01:05S 30°34' E 030°56'112.7
2017-May-29 01:00S 30°33' E 030°57'612.9
2017-May-29 00:30S 30°27' E 031°00'612.9
2017-May-29 00:00S 30°22' E 031°04'612.8
2017-May-28 23:30S 30°16' E 031°07'612.9
2017-May-28 23:00S 30°09' E 031°08'612.8
2017-May-28 22:30S 30°03' E 031°08'713.2
2017-May-28 22:00S 29°56' E 031°08'612.1
2017-May-28 21:30S 29°51' E 031°06'4 7.5
2017-May-28 21:00S 29°53' E 031°02'2 3.6
2017-May-28 20:30S 29°53' E 031°00'0 0.7
2017-May-28 20:00S 29°53' E 031°00'0 0.0
2017-May-28 19:30S 29°53' E 031°00'0 0.0
2017-May-28 19:00S 29°53' E 031°00'0 0.0
2017-May-28 18:30S 29°53' E 031°00'0 0.0
2017-May-28 18:00S 29°53' E 031°00'0 0.0
2017-May-28 17:30S 29°53' E 031°00'0 0.0
2017-May-28 17:00S 29°53' E 031°00'0 0.0
2017-May-28 16:30S 29°53' E 031°00'0 0.0
2017-May-28 16:00S 29°53' E 031°00'0 0.0
2017-May-28 15:30S 29°53' E 031°00'0 0.0
2017-May-28 15:00S 29°53' E 031°00'0 0.0
2017-May-28 13:57S 29°53' E 031°00'0 0.0
2017-May-28 13:30S 29°53' E 031°00'0 0.0
2017-May-28 12:51S 29°53' E 031°00'0 0.0
2017-May-28 12:27S 29°53' E 031°00'0 0.0
2017-May-28 11:57S 29°53' E 031°00'0 0.0
2017-May-28 11:27S 29°53' E 031°00'0 0.0
2017-May-28 07:30S 29°53' E 031°00'0 0.0
2017-May-28 06:57S 29°53' E 031°00'0 0.0
2017-May-28 06:30S 29°53' E 031°00'0 0.0
2017-May-28 05:57S 29°53' E 031°00'0 0.0
2017-May-28 05:30S 29°53' E 031°00'0 0.0
2017-May-28 04:57S 29°53' E 031°00'0 0.0
2017-May-28 04:30S 29°53' E 031°00'0 0.0
2017-May-28 03:54S 29°53' E 031°00'0 0.0
2017-May-28 03:30S 29°53' E 031°00'0 0.0
2017-May-28 02:57S 29°53' E 031°00'0 0.0
2017-May-28 02:30S 29°53' E 031°00'0 0.0
2017-May-28 02:00S 29°53' E 031°00'0 0.0
2017-May-28 01:30S 29°53' E 031°00'0 0.0
2017-May-28 01:00S 29°53' E 031°00'0 0.0
2017-May-28 00:30S 29°53' E 031°00'0 0.0
2017-May-28 00:00S 29°53' E 031°00'0 0.0
2017-May-27 23:30S 29°53' E 031°00'0 0.0
2017-May-27 23:00S 29°53' E 031°00'0 0.0
2017-May-27 22:27S 29°53' E 031°00'0 0.0
2017-May-27 22:00S 29°53' E 031°00'0 0.0
2017-May-27 21:30S 29°53' E 031°00'0 0.0
2017-May-27 21:00S 29°53' E 031°00'0 0.0
2017-May-27 20:30S 29°53' E 031°00'0 0.0
2017-May-27 20:00S 29°53' E 031°00'0 0.0
2017-May-27 19:30S 29°53' E 031°00'0 0.0
2017-May-27 19:00S 29°53' E 031°00'0 0.0
2017-May-27 18:30S 29°53' E 031°00'0 0.0
2017-May-27 18:00S 29°53' E 031°00'0 0.0
2017-May-27 17:30S 29°53' E 031°00'0 0.0
2017-May-27 16:57S 29°53' E 031°00'0 0.0
2017-May-27 16:30S 29°53' E 031°00'0 0.0
2017-May-27 16:00S 29°53' E 031°00'0 0.0
2017-May-27 15:30S 29°53' E 031°00'0 0.0
2017-May-27 15:00S 29°53' E 031°00'0 0.0
2017-May-27 14:30S 29°53' E 031°00'0 0.0
2017-May-27 13:27S 29°53' E 031°00'0 0.0
2017-May-27 13:00S 29°53' E 031°00'0 0.0
2017-May-27 12:27S 29°53' E 031°00'0 0.0
2017-May-27 11:57S 29°53' E 031°00'0 0.0
2017-May-27 11:27S 29°53' E 031°00'0 0.0
2017-May-27 10:57S 29°53' E 031°00'0 0.0
2017-May-27 10:21S 29°53' E 031°00'0 0.0
2017-May-27 09:51S 29°53' E 031°00'0 0.0
2017-May-27 09:27S 29°53' E 031°00'0 0.0
2017-May-27 08:57S 29°53' E 031°00'0 0.0
2017-May-27 08:30S 29°53' E 031°00'0 0.0
2017-May-27 08:00S 29°53' E 031°00'0 0.0
2017-May-27 07:27S 29°53' E 031°00'0 0.0
2017-May-27 06:57S 29°53' E 031°00'0 0.0
2017-May-27 06:27S 29°53' E 031°00'0 0.0
2017-May-27 05:57S 29°53' E 031°00'0 0.0
2017-May-27 05:27S 29°53' E 031°00'0 0.0
2017-May-27 05:00S 29°53' E 031°00'0 0.0
2017-May-27 04:30S 29°53' E 031°00'0 0.0
2017-May-27 04:00S 29°53' E 031°00'0 0.0
2017-May-27 03:27S 29°53' E 031°00'0 0.0
2017-May-27 03:00S 29°53' E 031°00'0 0.0
2017-May-27 02:30S 29°53' E 031°00'0 0.0
2017-May-27 01:57S 29°53' E 031°00'0 0.0
2017-May-27 01:27S 29°53' E 031°00'0 0.0
2017-May-27 01:00S 29°53' E 031°00'0 0.0
2017-May-27 00:27S 29°53' E 031°00'0 0.0
2017-May-27 00:00S 29°53' E 031°00'0 0.0
2017-May-26 23:30S 29°53' E 031°00'0 0.0
2017-May-26 23:00S 29°53' E 031°00'0 0.0
2017-May-26 22:30S 29°53' E 031°00'0 0.0
2017-May-26 22:00S 29°53' E 031°00'0 0.0
2017-May-26 21:21S 29°53' E 031°00'0 0.0
2017-May-26 21:00S 29°53' E 031°00'0 0.0
2017-May-26 20:30S 29°53' E 031°00'0 0.0
2017-May-26 19:57S 29°53' E 031°00'0 0.0
2017-May-26 19:27S 29°53' E 031°00'0 0.0
2017-May-26 19:00S 29°53' E 031°00'0 0.0
2017-May-26 18:30S 29°53' E 031°00'0 0.0
2017-May-26 18:00S 29°53' E 031°00'0 0.0
2017-May-26 17:30S 29°53' E 031°00'0 0.0
2017-May-26 17:00S 29°53' E 031°00'0 0.0
2017-May-26 16:30S 29°53' E 031°00'0 0.0
2017-May-26 16:00S 29°53' E 031°00'0 0.0
2017-May-26 15:30S 29°53' E 031°00'0 0.0
2017-May-26 15:00S 29°53' E 031°00'0 0.0
2017-May-26 14:00S 29°53' E 031°00'0 0.0
2017-May-26 13:30S 29°53' E 031°00'0 0.0
2017-May-26 13:00S 29°53' E 031°00'0 0.0
2017-May-26 12:30S 29°53' E 031°00'0 0.0
2017-May-26 12:00S 29°53' E 031°00'0 0.0
2017-May-26 11:30S 29°53' E 031°00'0 0.0
2017-May-26 11:00S 29°53' E 031°00'0 0.0
2017-May-26 10:30S 29°53' E 031°00'0 0.0
2017-May-26 10:00S 29°53' E 031°00'0 0.0
2017-May-26 09:30S 29°53' E 031°00'0 0.0
2017-May-26 09:00S 29°53' E 031°00'0 0.0
2017-May-26 08:30S 29°53' E 031°00'0 0.1
2017-May-26 08:00S 29°53' E 031°00'2 3.6
2017-May-26 07:30S 29°53' E 031°02'4 7.6
2017-May-26 07:00S 29°50' E 031°06'3 5.7
2017-May-26 06:30S 29°49' E 031°09'3 5.4
2017-May-26 06:00S 29°49' E 031°12'2 4.2
2017-May-26 05:30S 29°48' E 031°14'5 9.5
2017-May-26 05:00S 29°47' E 031°19'5 9.2
2017-May-26 04:30S 29°46' E 031°25'5 9.2
2017-May-26 04:00S 29°45' E 031°30'4 8.0
2017-May-26 03:30S 29°44' E 031°34'612.2
2017-May-26 03:01S 29°42' E 031°41'714.5
2017-May-26 02:30S 29°40' E 031°49'714.4
2017-May-26 02:01S 29°42' E 031°57'714.7
2017-May-26 01:30S 29°44' E 032°05'1814.4
2017-May-26 00:14S 29°30' E 032°19'614.7
2017-May-25 23:50S 29°26' E 032°24'714.5
2017-May-25 23:22S 29°22' E 032°30'4614.8
2017-May-25 20:14S 28°51' E 033°09'1014.0
2017-May-25 19:33S 28°44' E 033°17'  
Track history (hours):
 
Tides and Currents Weather Stations Pressure Air Temp Water Temp Dewpoint Dewpoint Depression Visibility Wind Speed Wind Dir Waves Ship Positions

Neptune Pioneer

Last reported at 2017-Jun-01 19:40 UTC. Time now 2017-Jun-22 14:27 UTC.
Position S 33°60' E 018°14'.
Warning: this ship's position is 20 days out of date.

Length 190 m; draft 6.2 m.

Type: Cargo ship. MMSI: 372723000.

Date/timePositionNaut miles runAvg speedWind from/ knotsBaromVisibWave heightAir tempDewpointWater temp
2017-Jun-01 19:40S 33°60' E 018°14'313.6
2017-Jun-01 19:28S 33°57' E 018°15'613.5
2017-Jun-01 19:00S 33°52' E 018°20'510.5
2017-Jun-01 18:30S 33°52' E 018°26'2 4.8
2017-Jun-01 18:00S 33°55' E 018°26'0 0.2
2017-Jun-01 17:28S 33°54' E 018°26'0 0.0
2017-Jun-01 16:58S 33°54' E 018°26'0 0.0
2017-Jun-01 16:28S 33°54' E 018°26'0 0.0
2017-Jun-01 15:58S 33°54' E 018°26'0 0.0
2017-Jun-01 15:28S 33°54' E 018°26'0 0.0
2017-Jun-01 14:58S 33°54' E 018°26'0 0.0
2017-Jun-01 13:58S 33°54' E 018°26'0 0.0
2017-Jun-01 13:28S 33°54' E 018°26'0 0.0
2017-Jun-01 12:55S 33°54' E 018°26'0 0.0
2017-Jun-01 12:28S 33°54' E 018°26'0 0.0
2017-Jun-01 11:58S 33°54' E 018°26'0 0.0
2017-Jun-01 11:28S 33°54' E 018°26'0 0.0
2017-Jun-01 10:58S 33°54' E 018°26'0 0.0
2017-Jun-01 10:28S 33°54' E 018°26'0 0.0
2017-Jun-01 09:58S 33°54' E 018°26'0 0.0
2017-Jun-01 09:28S 33°54' E 018°26'0 0.0
2017-Jun-01 08:55S 33°54' E 018°26'0 0.0
2017-Jun-01 08:28S 33°54' E 018°26'0 0.0
2017-Jun-01 07:58S 33°54' E 018°26'0 0.0
2017-Jun-01 07:30S 33°54' E 018°26'0 0.0
2017-Jun-01 06:59S 33°54' E 018°26'0 0.0
2017-Jun-01 06:30S 33°54' E 018°26'0 0.0
2017-Jun-01 06:00S 33°54' E 018°26'0 0.0
2017-Jun-01 05:30S 33°54' E 018°26'0 0.0
2017-Jun-01 05:00S 33°54' E 018°26'0 0.0
2017-Jun-01 04:30S 33°54' E 018°26'0 0.0
2017-Jun-01 04:00S 33°54' E 018°26'0 0.0
2017-Jun-01 03:30S 33°54' E 018°26'0 0.0
2017-Jun-01 03:00S 33°54' E 018°26'0 0.0
2017-Jun-01 02:30S 33°54' E 018°26'0 0.0
2017-Jun-01 02:00S 33°54' E 018°26'0 0.0
2017-Jun-01 01:30S 33°54' E 018°26'0 0.0
2017-Jun-01 01:00S 33°54' E 018°26'0 0.0
2017-Jun-01 00:30S 33°54' E 018°26'0 0.0
2017-Jun-01 00:00S 33°54' E 018°26'0 0.0
2017-May-31 23:30S 33°54' E 018°26'0 0.0
2017-May-31 23:00S 33°54' E 018°26'0 0.0
2017-May-31 22:30S 33°54' E 018°26'0 0.0
2017-May-31 22:00S 33°54' E 018°26'0 0.0
2017-May-31 21:30S 33°54' E 018°26'0 0.0
2017-May-31 21:00S 33°54' E 018°26'0 0.0
2017-May-31 20:30S 33°54' E 018°26'0 0.0
2017-May-31 20:00S 33°54' E 018°26'0 0.0
2017-May-31 19:30S 33°54' E 018°26'0 0.0
2017-May-31 19:00S 33°54' E 018°26'0 0.0
2017-May-31 18:30S 33°54' E 018°26'0 0.0
2017-May-31 18:00S 33°54' E 018°26'0 0.0
2017-May-31 17:30S 33°54' E 018°26'0 0.0
2017-May-31 17:00S 33°54' E 018°26'0 0.0
2017-May-31 16:30S 33°54' E 018°26'0 0.0
2017-May-31 16:00S 33°54' E 018°26'0 0.0
2017-May-31 15:30S 33°54' E 018°26'0 0.0
2017-May-31 15:00S 33°54' E 018°26'0 0.0
2017-May-31 14:00S 33°54' E 018°26'0 0.0
2017-May-31 13:30S 33°54' E 018°26'0 0.0
2017-May-31 13:00S 33°54' E 018°26'0 0.0
2017-May-31 12:30S 33°54' E 018°26'0 0.0
2017-May-31 12:00S 33°54' E 018°26'0 0.7
2017-May-31 11:30S 33°54' E 018°26'2 4.5
2017-May-31 11:00S 33°52' E 018°25'1 1.0
2017-May-31 10:30S 33°52' E 018°24'3 5.8
2017-May-31 10:00S 33°53' E 018°28'0 0.0
2017-May-31 09:30S 33°53' E 018°28'0 0.2
2017-May-31 09:00S 33°53' E 018°28'0 0.3
2017-May-31 08:30S 33°53' E 018°28'0 0.4
2017-May-31 08:00S 33°53' E 018°27'3 6.6
2017-May-31 07:30S 33°52' E 018°23'2 4.0
2017-May-31 07:01S 33°53' E 018°21'1 2.2
2017-May-31 06:30S 33°54' E 018°20'5 9.8
2017-May-31 06:01S 33°58' E 018°17'  
2017-May-29 01:05S 30°34' E 030°56'112.7
2017-May-29 01:00S 30°33' E 030°57'612.9
2017-May-29 00:30S 30°27' E 031°00'612.9
2017-May-29 00:00S 30°22' E 031°04'612.8
2017-May-28 23:30S 30°16' E 031°07'612.9
2017-May-28 23:00S 30°09' E 031°08'612.8
2017-May-28 22:30S 30°03' E 031°08'713.2
2017-May-28 22:00S 29°56' E 031°08'612.1
2017-May-28 21:30S 29°51' E 031°06'4 7.5
2017-May-28 21:00S 29°53' E 031°02'2 3.6
2017-May-28 20:30S 29°53' E 031°00'0 0.7
2017-May-28 20:00S 29°53' E 031°00'0 0.0
2017-May-28 19:30S 29°53' E 031°00'0 0.0
2017-May-28 19:00S 29°53' E 031°00'0 0.0
2017-May-28 18:30S 29°53' E 031°00'0 0.0
2017-May-28 18:00S 29°53' E 031°00'0 0.0
2017-May-28 17:30S 29°53' E 031°00'0 0.0
2017-May-28 17:00S 29°53' E 031°00'0 0.0
2017-May-28 16:30S 29°53' E 031°00'0 0.0
2017-May-28 16:00S 29°53' E 031°00'0 0.0
2017-May-28 15:30S 29°53' E 031°00'0 0.0
2017-May-28 15:00S 29°53' E 031°00'0 0.0
2017-May-28 13:57S 29°53' E 031°00'0 0.0
2017-May-28 13:30S 29°53' E 031°00'0 0.0
2017-May-28 12:51S 29°53' E 031°00'0 0.0
2017-May-28 12:27S 29°53' E 031°00'0 0.0
2017-May-28 11:57S 29°53' E 031°00'0 0.0
2017-May-28 11:27S 29°53' E 031°00'0 0.0
2017-May-28 07:30S 29°53' E 031°00'0 0.0
2017-May-28 06:57S 29°53' E 031°00'0 0.0
2017-May-28 06:30S 29°53' E 031°00'0 0.0
2017-May-28 05:57S 29°53' E 031°00'0 0.0
2017-May-28 05:30S 29°53' E 031°00'0 0.0
2017-May-28 04:57S 29°53' E 031°00'0 0.0
2017-May-28 04:30S 29°53' E 031°00'0 0.0
2017-May-28 03:54S 29°53' E 031°00'0 0.0
2017-May-28 03:30S 29°53' E 031°00'0 0.0
2017-May-28 02:57S 29°53' E 031°00'0 0.0
2017-May-28 02:30S 29°53' E 031°00'0 0.0
2017-May-28 02:00S 29°53' E 031°00'0 0.0
2017-May-28 01:30S 29°53' E 031°00'0 0.0
2017-May-28 01:00S 29°53' E 031°00'0 0.0
2017-May-28 00:30S 29°53' E 031°00'0 0.0
2017-May-28 00:00S 29°53' E 031°00'0 0.0
2017-May-27 23:30S 29°53' E 031°00'0 0.0
2017-May-27 23:00S 29°53' E 031°00'0 0.0
2017-May-27 22:27S 29°53' E 031°00'0 0.0
2017-May-27 22:00S 29°53' E 031°00'0 0.0
2017-May-27 21:30S 29°53' E 031°00'0 0.0
2017-May-27 21:00S 29°53' E 031°00'0 0.0
2017-May-27 20:30S 29°53' E 031°00'0 0.0
2017-May-27 20:00S 29°53' E 031°00'0 0.0
2017-May-27 19:30S 29°53' E 031°00'0 0.0
2017-May-27 19:00S 29°53' E 031°00'0 0.0
2017-May-27 18:30S 29°53' E 031°00'0 0.0
2017-May-27 18:00S 29°53' E 031°00'0 0.0
2017-May-27 17:30S 29°53' E 031°00'0 0.0
2017-May-27 16:57S 29°53' E 031°00'0 0.0
2017-May-27 16:30S 29°53' E 031°00'0 0.0
2017-May-27 16:00S 29°53' E 031°00'0 0.0
2017-May-27 15:30S 29°53' E 031°00'0 0.0
2017-May-27 15:00S 29°53' E 031°00'0 0.0
2017-May-27 14:30S 29°53' E 031°00'0 0.0
2017-May-27 13:27S 29°53' E 031°00'0 0.0
2017-May-27 13:00S 29°53' E 031°00'0 0.0
2017-May-27 12:27S 29°53' E 031°00'0 0.0
2017-May-27 11:57S 29°53' E 031°00'0 0.0
2017-May-27 11:27S 29°53' E 031°00'0 0.0
2017-May-27 10:57S 29°53' E 031°00'0 0.0
2017-May-27 10:21S 29°53' E 031°00'0 0.0
2017-May-27 09:51S 29°53' E 031°00'0 0.0
2017-May-27 09:27S 29°53' E 031°00'0 0.0
2017-May-27 08:57S 29°53' E 031°00'0 0.0
2017-May-27 08:30S 29°53' E 031°00'0 0.0
2017-May-27 08:00S 29°53' E 031°00'0 0.0
2017-May-27 07:27S 29°53' E 031°00'0 0.0
2017-May-27 06:57S 29°53' E 031°00'0 0.0
2017-May-27 06:27S 29°53' E 031°00'0 0.0
2017-May-27 05:57S 29°53' E 031°00'0 0.0
2017-May-27 05:27S 29°53' E 031°00'0 0.0
2017-May-27 05:00S 29°53' E 031°00'0 0.0
2017-May-27 04:30S 29°53' E 031°00'0 0.0
2017-May-27 04:00S 29°53' E 031°00'0 0.0
2017-May-27 03:27S 29°53' E 031°00'0 0.0
2017-May-27 03:00S 29°53' E 031°00'0 0.0
2017-May-27 02:30S 29°53' E 031°00'0 0.0
2017-May-27 01:57S 29°53' E 031°00'0 0.0
2017-May-27 01:27S 29°53' E 031°00'0 0.0
2017-May-27 01:00S 29°53' E 031°00'0 0.0
2017-May-27 00:27S 29°53' E 031°00'0 0.0
2017-May-27 00:00S 29°53' E 031°00'0 0.0
2017-May-26 23:30S 29°53' E 031°00'0 0.0
2017-May-26 23:00S 29°53' E 031°00'0 0.0
2017-May-26 22:30S 29°53' E 031°00'0 0.0
2017-May-26 22:00S 29°53' E 031°00'0 0.0
2017-May-26 21:21S 29°53' E 031°00'0 0.0
2017-May-26 21:00S 29°53' E 031°00'0 0.0
2017-May-26 20:30S 29°53' E 031°00'0 0.0
2017-May-26 19:57S 29°53' E 031°00'0 0.0
2017-May-26 19:27S 29°53' E 031°00'0 0.0
2017-May-26 19:00S 29°53' E 031°00'0 0.0
2017-May-26 18:30S 29°53' E 031°00'0 0.0
2017-May-26 18:00S 29°53' E 031°00'0 0.0
2017-May-26 17:30S 29°53' E 031°00'0 0.0
2017-May-26 17:00S 29°53' E 031°00'0 0.0
2017-May-26 16:30S 29°53' E 031°00'0 0.0
2017-May-26 16:00S 29°53' E 031°00'0 0.0
2017-May-26 15:30S 29°53' E 031°00'0 0.0
2017-May-26 15:00S 29°53' E 031°00'0 0.0
2017-May-26 14:00S 29°53' E 031°00'0 0.0
2017-May-26 13:30S 29°53' E 031°00'0 0.0
2017-May-26 13:00S 29°53' E 031°00'0 0.0
2017-May-26 12:30S 29°53' E 031°00'0 0.0
2017-May-26 12:00S 29°53' E 031°00'0 0.0
2017-May-26 11:30S 29°53' E 031°00'0 0.0
2017-May-26 11:00S 29°53' E 031°00'0 0.0
2017-May-26 10:30S 29°53' E 031°00'0 0.0
2017-May-26 10:00S 29°53' E 031°00'0 0.0
2017-May-26 09:30S 29°53' E 031°00'0 0.0
2017-May-26 09:00S 29°53' E 031°00'0 0.0
2017-May-26 08:30S 29°53' E 031°00'0 0.1
2017-May-26 08:00S 29°53' E 031°00'2 3.6
2017-May-26 07:30S 29°53' E 031°02'4 7.6
2017-May-26 07:00S 29°50' E 031°06'3 5.7
2017-May-26 06:30S 29°49' E 031°09'3 5.4
2017-May-26 06:00S 29°49' E 031°12'2 4.2
2017-May-26 05:30S 29°48' E 031°14'5 9.5
2017-May-26 05:00S 29°47' E 031°19'5 9.2
2017-May-26 04:30S 29°46' E 031°25'5 9.2
2017-May-26 04:00S 29°45' E 031°30'4 8.0
2017-May-26 03:30S 29°44' E 031°34'612.2
2017-May-26 03:01S 29°42' E 031°41'714.5
2017-May-26 02:30S 29°40' E 031°49'714.4
2017-May-26 02:01S 29°42' E 031°57'714.7
2017-May-26 01:30S 29°44' E 032°05'1814.4
2017-May-26 00:14S 29°30' E 032°19'614.7
2017-May-25 23:50S 29°26' E 032°24'714.5
2017-May-25 23:22S 29°22' E 032°30'4614.8
2017-May-25 20:14S 28°51' E 033°09'1014.0
2017-May-25 19:33S 28°44' E 033°17'  

Dump ship's entire track history